»·PEaware :: N943TT KLAS-KPSP

N943TT :: KLAS-KPSP

FLIGHT INFORMATION

Flight Status: Arrived
Operator: Privately registered:
United States
More flights under this callsign
Pilot: Nathan B. (19040)
Aircraft: CESSNA 207 TURBO STATIONAIR
(C207)
More flights by this aircraft type
Origin: KLAS McCarran Intl
United States
Destination: KPSP Palm Springs Intl
United States
More flights between these airports :: More routes between these airports
Route: +LAS V538 GFS SBONO1
File this flight plan on PilotEdge
Remarks:
Altitude:
(Current/Filed)
12,000ft
Speed:
(Current/Filed)
130kts
Departed: 02-Oct-18 04:31 PM
Arrived: 02-Oct-18 06:00 PM
Distance/Time
Traveled:
151nm/1:29
Distance/Time
To Go:
Arrived

Flight Plot

Page will automatically refresh every two minutes.


Map Options




Map Legend


Flown Route
Filed Route
Departure Airport
Arrival Airport
Navaid (VOR, NDB)
Fix

Horizontal Profiles

Position Reports

Time Latitude Longitude Heading Altitude Ground
Speed
02-Oct-18 16:12 36.089127 -115.166000 33 2137ft 0kts
02-Oct-18 16:13 36.089127 -115.166000 33 2137ft 0kts
02-Oct-18 16:14 36.089127 -115.166000 33 2137ft 0kts
02-Oct-18 16:15 36.089127 -115.166000 33 2137ft 0kts
02-Oct-18 16:16 36.089127 -115.166000 33 2137ft 0kts
02-Oct-18 16:17 36.089127 -115.166000 33 2137ft 0kts
02-Oct-18 16:18 36.089127 -115.166000 33 2137ft 0kts
02-Oct-18 16:19 36.089127 -115.166000 33 2137ft 0kts
02-Oct-18 16:20 36.089127 -115.166000 33 2137ft 0kts
02-Oct-18 16:21 36.089127 -115.166000 33 2137ft 0kts
02-Oct-18 16:22 36.089127 -115.166000 33 2137ft 0kts
02-Oct-18 16:23 36.089127 -115.166000 33 2137ft 0kts
02-Oct-18 16:24 36.089127 -115.166000 33 2137ft 0kts
02-Oct-18 16:25 36.089127 -115.166000 33 2137ft 0kts
02-Oct-18 16:26 36.089127 -115.166000 33 2137ft 0kts
02-Oct-18 16:27 36.089127 -115.166000 33 2137ft 0kts
02-Oct-18 16:28 36.089444 -115.165053 81 2132ft 13kts
02-Oct-18 16:29 36.095028 -115.161503 24 2109ft 26kts
02-Oct-18 16:30 36.099856 -115.157603 104 2087ft 5kts
02-Oct-18 16:31 36.099834 -115.157577 167 2087ft 0kts
02-Oct-18 16:32 36.099230 -115.156693 190 2085ft 21kts
02-Oct-18 16:33 36.079699 -115.167836 199 2420ft 100kts
02-Oct-18 16:34 36.052234 -115.174866 185 3053ft 105kts
02-Oct-18 16:35 36.022139 -115.180408 186 3668ft 114kts
02-Oct-18 16:36 35.990758 -115.184640 186 4340ft 112kts
02-Oct-18 16:37 35.960120 -115.188273 186 5036ft 109kts
02-Oct-18 16:38 35.930385 -115.187162 181 5730ft 105kts
02-Oct-18 16:39 35.900974 -115.186750 182 6277ft 108kts
02-Oct-18 16:40 35.871597 -115.186387 182 6760ft 109kts
02-Oct-18 16:41 35.841284 -115.185975 182 7257ft 108kts
02-Oct-18 16:42 35.811601 -115.185553 182 7752ft 105kts
02-Oct-18 16:43 35.782682 -115.185155 183 8247ft 102kts
02-Oct-18 16:44 35.753896 -115.184769 183 8666ft 105kts
02-Oct-18 16:45 35.724622 -115.184386 183 9067ft 105kts
02-Oct-18 16:46 35.695653 -115.183994 183 9464ft 103kts
02-Oct-18 16:47 35.667511 -115.183609 183 9857ft 101kts
02-Oct-18 16:48 35.639761 -115.183206 183 10254ft 98kts
02-Oct-18 16:49 35.612864 -115.182774 182 10649ft 95kts
02-Oct-18 16:50 35.587075 -115.182357 182 11040ft 91kts
02-Oct-18 16:51 35.561823 -115.181872 182 11350ft 95kts
02-Oct-18 16:52 35.534258 -115.181749 182 11563ft 102kts
02-Oct-18 16:53 35.505446 -115.181497 181 11765ft 104kts
02-Oct-18 16:54 35.476382 -115.181134 181 11964ft 104kts
02-Oct-18 16:55 35.447063 -115.180762 181 12082ft 110kts
02-Oct-18 16:56 35.415356 -115.180516 181 12079ft 116kts
02-Oct-18 16:57 35.382927 -115.180227 181 12077ft 117kts
02-Oct-18 16:58 35.350178 -115.179828 181 12073ft 118kts
02-Oct-18 16:59 35.317366 -115.179406 181 12060ft 118kts
02-Oct-18 17:00 35.285425 -115.178983 181 12046ft 118kts
02-Oct-18 17:01 35.252632 -115.178546 181 12032ft 118kts
02-Oct-18 17:02 35.219737 -115.178106 181 12018ft 118kts
02-Oct-18 17:03 35.187056 -115.177657 181 12009ft 117kts
02-Oct-18 17:04 35.154393 -115.177195 181 12012ft 117kts
02-Oct-18 17:05 35.122580 -115.180483 198 12016ft 116kts
02-Oct-18 17:06 35.092070 -115.193994 200 12019ft 116kts
02-Oct-18 17:07 35.061721 -115.207462 200 12024ft 116kts
02-Oct-18 17:08 35.031195 -115.220963 200 12026ft 117kts
02-Oct-18 17:09 35.001660 -115.234014 201 12026ft 117kts
02-Oct-18 17:10 34.971045 -115.247529 202 12026ft 117kts
02-Oct-18 17:11 34.940476 -115.260997 202 12026ft 117kts
02-Oct-18 17:12 34.909960 -115.274431 203 12026ft 118kts
02-Oct-18 17:13 34.880110 -115.287590 204 12027ft 119kts
02-Oct-18 17:14 34.848749 -115.301406 204 12027ft 120kts
02-Oct-18 17:15 34.817605 -115.315110 204 12027ft 120kts
02-Oct-18 17:16 34.786209 -115.328903 204 12027ft 120kts
02-Oct-18 17:17 34.754855 -115.342666 204 12027ft 120kts
02-Oct-18 17:18 34.723392 -115.356464 204 12027ft 120kts
02-Oct-18 17:19 34.692025 -115.370197 204 12045ft 119kts
02-Oct-18 17:20 34.660769 -115.383873 204 12059ft 119kts
02-Oct-18 17:21 34.629529 -115.397538 204 12076ft 119kts
02-Oct-18 17:22 34.598336 -115.411172 203 12094ft 119kts
02-Oct-18 17:23 34.567255 -115.424742 204 12115ft 119kts
02-Oct-18 17:24 34.536185 -115.438307 204 12126ft 119kts
02-Oct-18 17:25 34.505441 -115.451728 204 12127ft 120kts
02-Oct-18 17:26 34.474154 -115.465367 204 12127ft 120kts
02-Oct-18 17:27 34.442742 -115.479044 204 12127ft 120kts
02-Oct-18 17:28 34.411361 -115.492696 204 12127ft 120kts
02-Oct-18 17:29 34.379964 -115.506345 204 12127ft 120kts
02-Oct-18 17:30 34.348654 -115.519944 204 12127ft 120kts
02-Oct-18 17:31 34.319189 -115.537215 222 12120ft 118kts
02-Oct-18 17:32 34.295107 -115.564592 224 12118ft 118kts
02-Oct-18 17:33 34.270979 -115.591849 224 12118ft 118kts
02-Oct-18 17:34 34.245141 -115.621281 224 11533ft 147kts
02-Oct-18 17:35 34.214619 -115.656138 223 10447ft 156kts
02-Oct-18 17:36 34.184694 -115.689863 222 9352ft 148kts
02-Oct-18 17:37 34.155167 -115.723014 222 8265ft 148kts
02-Oct-18 17:38 34.123764 -115.758347 222 7182ft 157kts
02-Oct-18 17:39 34.092932 -115.786538 212 7116ft 129kts
02-Oct-18 17:40 34.063525 -115.810188 212 7106ft 126kts
02-Oct-18 17:41 34.035353 -115.832994 212 7078ft 126kts
02-Oct-18 17:42 34.006288 -115.856526 212 7050ft 126kts
02-Oct-18 17:43 33.977277 -115.880011 212 7022ft 125kts
02-Oct-18 17:44 33.952012 -115.909006 225 6996ft 126kts
02-Oct-18 17:45 33.928296 -115.939999 225 6973ft 126kts
02-Oct-18 17:46 33.904651 -115.971038 225 6962ft 125kts
02-Oct-18 17:47 33.881696 -116.001285 226 6964ft 125kts
02-Oct-18 17:48 33.858531 -116.031943 226 6964ft 125kts
02-Oct-18 17:49 33.836050 -116.061796 226 6964ft 125kts
02-Oct-18 17:50 33.812847 -116.092717 226 6964ft 125kts
02-Oct-18 17:51 33.789582 -116.123835 226 6964ft 125kts
02-Oct-18 17:52 33.764194 -116.157899 226 6179ft 148kts
02-Oct-18 17:53 33.737530 -116.194186 227 4992ft 147kts
02-Oct-18 17:54 33.711280 -116.231196 241 3958ft 139kts
02-Oct-18 17:55 33.724072 -116.274144 302 3223ft 142kts
02-Oct-18 17:56 33.741109 -116.318308 291 2938ft 146kts
02-Oct-18 17:57 33.754077 -116.362941 290 2944ft 142kts
02-Oct-18 17:58 33.767464 -116.407018 292 3115ft 140kts
02-Oct-18 17:59 33.781588 -116.453185 292 2537ft 149kts
02-Oct-18 18:00 33.800128 -116.481422 326 1295ft 99kts
02-Oct-18 18:01 33.819371 -116.498470 329 439ft 79kts
02-Oct-18 18:02 33.828766 -116.507651 289 424ft 26kts
02-Oct-18 18:03 33.828067 -116.508259 146 423ft 14kts
02-Oct-18 18:04 33.825567 -116.508316 321 420ft 5kts
02-Oct-18 18:05 33.825913 -116.508724 270 421ft 0kts

Navigation Log

Ident Type
1. KLAS Airport
2. LAS Navaid
3. CRESO Fix
4. GFS Navaid
5. ZELMA Fix
6. JOTNU Fix
7. TNP Navaid
8. CLOWD Fix
9. SBONO Fix
10. KPSP Airport